sensor_id;sensor_type;location;lat;lon;timestamp;pressure;altitude;pressure_sealevel;temperature;humidity
75886;BME280;64561;44.018;10.144;2023-07-13T00:02:05;101302.88;;;26.91;75.83
75886;BME280;64561;44.018;10.144;2023-07-13T00:04:33;101295.84;;;26.91;74.70
75886;BME280;64561;44.018;10.144;2023-07-13T00:07:00;101294.03;;;26.94;73.81
75886;BME280;64561;44.018;10.144;2023-07-13T00:09:27;101287.84;;;26.95;73.47
75886;BME280;64561;44.018;10.144;2023-07-13T00:11:56;101283.41;;;26.97;72.75
75886;BME280;64561;44.018;10.144;2023-07-13T00:14:26;101273.72;;;26.99;72.90
75886;BME280;64561;44.018;10.144;2023-07-13T00:16:54;101274.47;;;27.01;71.98
75886;BME280;64561;44.018;10.144;2023-07-13T00:19:22;101274.38;;;27.04;71.46
75886;BME280;64561;44.018;10.144;2023-07-13T00:21:49;101274.25;;;27.07;70.73
75886;BME280;64561;44.018;10.144;2023-07-13T00:24:18;101262.84;;;27.08;70.27
75886;BME280;64561;44.018;10.144;2023-07-13T00:26:51;101256.66;;;27.09;70.39
75886;BME280;64561;44.018;10.144;2023-07-13T00:29:18;101255.75;;;27.10;69.58
75886;BME280;64561;44.018;10.144;2023-07-13T00:31:45;101247.75;;;27.13;68.94
75886;BME280;64561;44.018;10.144;2023-07-13T00:34:13;101240.69;;;27.15;69.51
75886;BME280;64561;44.018;10.144;2023-07-13T00:36:40;101241.53;;;27.16;68.51
75886;BME280;64561;44.018;10.144;2023-07-13T00:39:08;101254.66;;;27.17;69.30
75886;BME280;64561;44.018;10.144;2023-07-13T00:41:35;101262.56;;;27.16;69.23
75886;BME280;64561;44.018;10.144;2023-07-13T00:44:03;101266.97;;;27.15;69.38
75886;BME280;64561;44.018;10.144;2023-07-13T00:46:33;101274.00;;;27.13;69.75
75886;BME280;64561;44.018;10.144;2023-07-13T00:49:05;101262.63;;;27.14;69.51
75886;BME280;64561;44.018;10.144;2023-07-13T00:51:41;101260.00;;;27.14;69.20
75886;BME280;64561;44.018;10.144;2023-07-13T00:54:13;101261.72;;;27.13;69.38
75886;BME280;64561;44.018;10.144;2023-07-13T00:56:43;101253.84;;;27.13;69.39
75886;BME280;64561;44.018;10.144;2023-07-13T00:59:13;101250.44;;;27.11;69.20
75886;BME280;64561;44.018;10.144;2023-07-13T01:01:41;101253.19;;;27.08;69.77
75886;BME280;64561;44.018;10.144;2023-07-13T01:04:09;101246.28;;;27.06;69.14
75886;BME280;64561;44.018;10.144;2023-07-13T01:06:37;101255.09;;;27.05;69.91
75886;BME280;64561;44.018;10.144;2023-07-13T01:09:08;101261.19;;;27.05;70.58
75886;BME280;64561;44.018;10.144;2023-07-13T01:11:36;101255.97;;;27.04;70.52
75886;BME280;64561;44.018;10.144;2023-07-13T01:14:03;101252.69;;;26.99;70.70
75886;BME280;64561;44.018;10.144;2023-07-13T01:16:33;101254.38;;;27.00;71.18
75886;BME280;64561;44.018;10.144;2023-07-13T01:19:01;101255.31;;;26.99;70.62
75886;BME280;64561;44.018;10.144;2023-07-13T01:21:33;101242.22;;;26.97;70.46
75886;BME280;64561;44.018;10.144;2023-07-13T01:24:00;101238.78;;;26.95;70.53
75886;BME280;64561;44.018;10.144;2023-07-13T01:26:29;101245.13;;;26.89;71.17
75886;BME280;64561;44.018;10.144;2023-07-13T01:28:57;101227.63;;;26.90;71.53
75886;BME280;64561;44.018;10.144;2023-07-13T01:31:25;101229.25;;;26.92;71.15
75886;BME280;64561;44.018;10.144;2023-07-13T01:33:53;101222.25;;;26.93;70.36
75886;BME280;64561;44.018;10.144;2023-07-13T01:36:21;101221.31;;;26.94;70.37
75886;BME280;64561;44.018;10.144;2023-07-13T01:38:48;101207.34;;;26.94;70.36
75886;BME280;64561;44.018;10.144;2023-07-13T01:41:15;101214.28;;;26.95;71.06
75886;BME280;64561;44.018;10.144;2023-07-13T01:43:42;101218.63;;;26.96;70.86
75886;BME280;64561;44.018;10.144;2023-07-13T01:46:10;101217.78;;;26.95;70.53
75886;BME280;64561;44.018;10.144;2023-07-13T01:48:50;101212.59;;;26.94;70.91
75886;BME280;64561;44.018;10.144;2023-07-13T01:51:18;101207.34;;;26.94;71.19
75886;BME280;64561;44.018;10.144;2023-07-13T01:53:46;101208.34;;;26.89;71.68
75886;BME280;64561;44.018;10.144;2023-07-13T01:56:13;101210.31;;;26.84;71.17
75886;BME280;64561;44.018;10.144;2023-07-13T01:58:40;101212.97;;;26.83;71.30
75886;BME280;64561;44.018;10.144;2023-07-13T02:01:07;101213.91;;;26.82;71.83
75886;BME280;64561;44.018;10.144;2023-07-13T02:03:34;101211.31;;;26.80;72.27
75886;BME280;64561;44.018;10.144;2023-07-13T02:06:02;101208.69;;;26.80;72.11
75886;BME280;64561;44.018;10.144;2023-07-13T02:08:31;101200.81;;;26.80;72.70
75886;BME280;64561;44.018;10.144;2023-07-13T02:10:59;101188.69;;;26.78;72.48
75886;BME280;64561;44.018;10.144;2023-07-13T02:13:26;101182.56;;;26.77;72.98
75886;BME280;64561;44.018;10.144;2023-07-13T02:15:53;101173.03;;;26.75;73.14
75886;BME280;64561;44.018;10.144;2023-07-13T02:18:21;101160.88;;;26.72;73.11
75886;BME280;64561;44.018;10.144;2023-07-13T02:21:08;101181.09;;;26.70;73.20
75886;BME280;64561;44.018;10.144;2023-07-13T02:23:35;101172.59;;;26.63;72.86
75886;BME280;64561;44.018;10.144;2023-07-13T02:26:03;101177.03;;;26.61;73.21
75886;BME280;64561;44.018;10.144;2023-07-13T02:28:31;101184.06;;;26.61;73.57
75886;BME280;64561;44.018;10.144;2023-07-13T02:31:05;101159.69;;;26.57;73.71
75886;BME280;64561;44.018;10.144;2023-07-13T02:33:32;101153.50;;;26.58;74.22
75886;BME280;64561;44.018;10.144;2023-07-13T02:35:59;101145.59;;;26.60;74.29
75886;BME280;64561;44.018;10.144;2023-07-13T02:38:27;101166.59;;;26.60;73.45
75886;BME280;64561;44.018;10.144;2023-07-13T02:40:54;101172.00;;;26.55;73.41
75886;BME280;64561;44.018;10.144;2023-07-13T02:43:21;101156.38;;;26.52;73.96
75886;BME280;64561;44.018;10.144;2023-07-13T02:45:49;101153.69;;;26.54;73.87
75886;BME280;64561;44.018;10.144;2023-07-13T02:48:16;101163.22;;;26.56;73.93
75886;BME280;64561;44.018;10.144;2023-07-13T02:50:44;101171.28;;;26.52;74.08
75886;BME280;64561;44.018;10.144;2023-07-13T02:53:12;101176.59;;;26.49;73.75
75886;BME280;64561;44.018;10.144;2023-07-13T02:55:39;101170.63;;;26.45;73.89
75886;BME280;64561;44.018;10.144;2023-07-13T02:58:07;101185.50;;;26.44;74.52
75886;BME280;64561;44.018;10.144;2023-07-13T03:00:38;101169.91;;;26.40;73.86
75886;BME280;64561;44.018;10.144;2023-07-13T03:03:08;101139.38;;;26.37;74.34
75886;BME280;64561;44.018;10.144;2023-07-13T03:05:37;101127.13;;;26.38;74.60
75886;BME280;64561;44.018;10.144;2023-07-13T03:08:04;101185.78;;;26.37;74.07
75886;BME280;64561;44.018;10.144;2023-07-13T03:10:34;101197.09;;;26.39;73.96
75886;BME280;64561;44.018;10.144;2023-07-13T03:13:02;101184.97;;;26.35;74.14
75886;BME280;64561;44.018;10.144;2023-07-13T03:15:29;101173.63;;;26.34;74.77
75886;BME280;64561;44.018;10.144;2023-07-13T03:17:57;101185.03;;;26.33;74.60
75886;BME280;64561;44.018;10.144;2023-07-13T03:20:25;101186.13;;;26.28;74.86
75886;BME280;64561;44.018;10.144;2023-07-13T03:22:52;101186.25;;;26.23;74.54
75886;BME280;64561;44.018;10.144;2023-07-13T03:25:19;101196.75;;;26.23;75.19
75886;BME280;64561;44.018;10.144;2023-07-13T03:27:48;101179.28;;;26.23;75.63
75886;BME280;64561;44.018;10.144;2023-07-13T03:30:15;101155.78;;;26.20;75.80
75886;BME280;64561;44.018;10.144;2023-07-13T03:32:43;101161.06;;;26.19;75.47
75886;BME280;64561;44.018;10.144;2023-07-13T03:35:10;101176.09;;;26.14;74.72
75886;BME280;64561;44.018;10.144;2023-07-13T03:37:38;101198.81;;;26.15;75.16
75886;BME280;64561;44.018;10.144;2023-07-13T03:40:14;101190.03;;;26.16;75.87
75886;BME280;64561;44.018;10.144;2023-07-13T03:42:45;101186.59;;;26.14;75.23
75886;BME280;64561;44.018;10.144;2023-07-13T03:45:15;101194.53;;;26.12;75.32
75886;BME280;64561;44.018;10.144;2023-07-13T03:47:42;101194.56;;;26.11;75.75
75886;BME280;64561;44.018;10.144;2023-07-13T03:50:09;101190.97;;;26.13;76.05
75886;BME280;64561;44.018;10.144;2023-07-13T03:52:40;101187.53;;;26.11;76.00
75886;BME280;64561;44.018;10.144;2023-07-13T03:55:07;101190.13;;;26.13;75.70
75886;BME280;64561;44.018;10.144;2023-07-13T03:57:34;101188.34;;;26.13;75.74
75886;BME280;64561;44.018;10.144;2023-07-13T04:00:07;101177.88;;;26.13;76.10
75886;BME280;64561;44.018;10.144;2023-07-13T04:02:41;101162.97;;;26.14;76.62
75886;BME280;64561;44.018;10.144;2023-07-13T04:05:08;101166.56;;;26.11;76.49
75886;BME280;64561;44.018;10.144;2023-07-13T04:07:35;101166.53;;;26.13;75.98
75886;BME280;64561;44.018;10.144;2023-07-13T04:10:03;101170.81;;;26.15;75.93
75886;BME280;64561;44.018;10.144;2023-07-13T04:12:30;101158.53;;;26.16;75.89
75886;BME280;64561;44.018;10.144;2023-07-13T04:14:57;101158.53;;;26.16;75.84
75886;BME280;64561;44.018;10.144;2023-07-13T04:17:24;101170.81;;;26.15;76.55
75886;BME280;64561;44.018;10.144;2023-07-13T04:19:51;101172.50;;;26.16;76.50
75886;BME280;64561;44.018;10.144;2023-07-13T04:22:19;101179.41;;;26.19;76.89
75886;BME280;64561;44.018;10.144;2023-07-13T04:24:46;101180.16;;;26.22;76.94
75886;BME280;64561;44.018;10.144;2023-07-13T04:27:13;101181.00;;;26.23;76.96
75886;BME280;64561;44.018;10.144;2023-07-13T04:29:40;101189.69;;;26.25;76.92
75886;BME280;64561;44.018;10.144;2023-07-13T04:32:07;101200.31;;;26.22;76.27
75886;BME280;64561;44.018;10.144;2023-07-13T04:34:34;101196.88;;;26.20;75.91
75886;BME280;64561;44.018;10.144;2023-07-13T04:37:01;101193.34;;;26.21;76.19
75886;BME280;64561;44.018;10.144;2023-07-13T04:39:28;101188.72;;;26.28;75.13
75886;BME280;64561;44.018;10.144;2023-07-13T04:41:56;101170.63;;;26.20;76.60
75886;BME280;64561;44.018;10.144;2023-07-13T04:44:23;101155.22;;;26.11;75.63
75886;BME280;64561;44.018;10.144;2023-07-13T04:46:50;101164.63;;;26.16;76.40
75886;BME280;64561;44.018;10.144;2023-07-13T04:49:17;101186.25;;;26.23;76.89
75886;BME280;64561;44.018;10.144;2023-07-13T04:51:45;101188.66;;;26.29;78.09
75886;BME280;64561;44.018;10.144;2023-07-13T04:54:12;101195.56;;;26.32;78.07
75886;BME280;64561;44.018;10.144;2023-07-13T04:56:39;101207.75;;;26.34;77.96
75886;BME280;64561;44.018;10.144;2023-07-13T04:59:06;101215.59;;;26.34;78.27
75886;BME280;64561;44.018;10.144;2023-07-13T05:01:33;101208.53;;;26.36;78.24
75886;BME280;64561;44.018;10.144;2023-07-13T05:04:01;101200.69;;;26.36;78.23
75886;BME280;64561;44.018;10.144;2023-07-13T05:06:28;101203.31;;;26.36;78.55
75886;BME280;64561;44.018;10.144;2023-07-13T05:08:57;101184.97;;;26.35;78.72
75886;BME280;64561;44.018;10.144;2023-07-13T05:11:24;101187.59;;;26.35;78.75
75886;BME280;64561;44.018;10.144;2023-07-13T05:13:51;101212.06;;;26.35;78.71
75886;BME280;64561;44.018;10.144;2023-07-13T05:16:19;101201.53;;;26.37;78.62
75886;BME280;64561;44.018;10.144;2023-07-13T05:18:46;101185.81;;;26.35;78.32
75886;BME280;64561;44.018;10.144;2023-07-13T05:21:13;101179.69;;;26.36;78.62
75886;BME280;64561;44.018;10.144;2023-07-13T05:23:41;101181.38;;;26.37;78.61
75886;BME280;64561;44.018;10.144;2023-07-13T05:26:09;101166.44;;;26.39;77.42
75886;BME280;64561;44.018;10.144;2023-07-13T05:28:37;101161.19;;;26.39;76.71
75886;BME280;64561;44.018;10.144;2023-07-13T05:31:06;101156.72;;;26.41;76.90
75886;BME280;64561;44.018;10.144;2023-07-13T05:33:34;101175.97;;;26.42;77.21
75886;BME280;64561;44.018;10.144;2023-07-13T05:36:01;101175.41;;;26.34;76.79
75886;BME280;64561;44.018;10.144;2023-07-13T05:38:29;101165.75;;;26.34;76.39
75886;BME280;64561;44.018;10.144;2023-07-13T05:40:57;101172.59;;;26.38;77.62
75886;BME280;64561;44.018;10.144;2023-07-13T05:43:24;101196.91;;;26.43;78.28
75886;BME280;64561;44.018;10.144;2023-07-13T05:45:56;101211.63;;;26.49;78.74
75886;BME280;64561;44.018;10.144;2023-07-13T05:48:24;101217.50;;;26.56;78.08
75886;BME280;64561;44.018;10.144;2023-07-13T05:50:51;101236.69;;;26.58;78.16
75886;BME280;64561;44.018;10.144;2023-07-13T05:53:18;101236.59;;;26.59;77.49
75886;BME280;64561;44.018;10.144;2023-07-13T05:55:47;101233.97;;;26.59;76.94
75886;BME280;64561;44.018;10.144;2023-07-13T05:58:17;101239.31;;;26.58;77.66
75886;BME280;64561;44.018;10.144;2023-07-13T06:00:48;101245.41;;;26.58;78.14
75886;BME280;64561;44.018;10.144;2023-07-13T06:03:16;101242.78;;;26.58;78.96
75886;BME280;64561;44.018;10.144;2023-07-13T06:05:43;101248.00;;;26.60;78.62
75886;BME280;64561;44.018;10.144;2023-07-13T06:08:10;101249.69;;;26.61;78.40
75886;BME280;64561;44.018;10.144;2023-07-13T06:10:37;101252.25;;;26.62;78.72
75886;BME280;64561;44.018;10.144;2023-07-13T06:13:04;101248.78;;;26.62;78.15
75886;BME280;64561;44.018;10.144;2023-07-13T06:15:32;101246.97;;;26.64;78.30
75886;BME280;64561;44.018;10.144;2023-07-13T06:18:00;101246.03;;;26.65;78.38
75886;BME280;64561;44.018;10.144;2023-07-13T06:20:28;101239.81;;;26.67;77.69
75886;BME280;64561;44.018;10.144;2023-07-13T06:22:55;101241.59;;;26.67;77.27
75886;BME280;64561;44.018;10.144;2023-07-13T06:25:22;101232.75;;;26.70;76.20
75886;BME280;64561;44.018;10.144;2023-07-13T06:27:50;101232.75;;;26.70;76.53
75886;BME280;64561;44.018;10.144;2023-07-13T06:30:17;101221.28;;;26.72;75.35
75886;BME280;64561;44.018;10.144;2023-07-13T06:32:44;101216.03;;;26.72;75.57
75886;BME280;64561;44.018;10.144;2023-07-13T06:35:11;101213.31;;;26.74;76.08
75886;BME280;64561;44.018;10.144;2023-07-13T06:37:40;101219.41;;;26.76;76.10
75886;BME280;64561;44.018;10.144;2023-07-13T06:40:08;101225.47;;;26.78;76.28
75886;BME280;64561;44.018;10.144;2023-07-13T06:42:35;101242.06;;;26.78;76.21
75886;BME280;64561;44.018;10.144;2023-07-13T06:45:02;101243.75;;;26.79;76.82
75886;BME280;64561;44.018;10.144;2023-07-13T06:47:31;101242.84;;;26.80;76.79
75886;BME280;64561;44.018;10.144;2023-07-13T06:50:00;101233.16;;;26.82;76.33
75886;BME280;64561;44.018;10.144;2023-07-13T06:52:30;101227.97;;;26.81;76.41
75886;BME280;64561;44.018;10.144;2023-07-13T06:54:57;101230.59;;;26.81;77.03
75886;BME280;64561;44.018;10.144;2023-07-13T06:57:24;101227.03;;;26.82;76.57
75886;BME280;64561;44.018;10.144;2023-07-13T06:59:51;101231.22;;;26.87;76.40
75886;BME280;64561;44.018;10.144;2023-07-13T07:02:18;101225.09;;;26.87;76.18
75886;BME280;64561;44.018;10.144;2023-07-13T07:04:46;101218.06;;;26.87;75.04
75886;BME280;64561;44.018;10.144;2023-07-13T07:07:13;101216.19;;;26.91;74.38
75886;BME280;64561;44.018;10.144;2023-07-13T07:09:40;101205.59;;;26.92;74.31
75886;BME280;64561;44.018;10.144;2023-07-13T07:12:07;101207.25;;;26.95;73.84
75886;BME280;64561;44.018;10.144;2023-07-13T07:14:34;101201.13;;;26.96;73.56
75886;BME280;64561;44.018;10.144;2023-07-13T07:17:01;101203.63;;;26.99;73.33
75886;BME280;64561;44.018;10.144;2023-07-13T07:19:30;101210.34;;;27.06;73.89
75886;BME280;64561;44.018;10.144;2023-07-13T07:21:57;101220.53;;;27.16;72.88
75886;BME280;64561;44.018;10.144;2023-07-13T07:24:25;101228.97;;;27.24;72.66
75886;BME280;64561;44.018;10.144;2023-07-13T07:26:52;101230.78;;;27.22;72.41
75886;BME280;64561;44.018;10.144;2023-07-13T07:29:22;101226.38;;;27.22;72.21
75886;BME280;64561;44.018;10.144;2023-07-13T07:31:52;101228.13;;;27.23;72.45
75886;BME280;64561;44.018;10.144;2023-07-13T07:34:22;101228.16;;;27.22;72.65
75886;BME280;64561;44.018;10.144;2023-07-13T07:36:49;101226.34;;;27.24;72.90
75886;BME280;64561;44.018;10.144;2023-07-13T07:39:19;101233.25;;;27.26;72.76
75886;BME280;64561;44.018;10.144;2023-07-13T07:41:46;101228.00;;;27.26;73.09
75886;BME280;64561;44.018;10.144;2023-07-13T07:44:17;101232.44;;;27.24;73.31
75886;BME280;64561;44.018;10.144;2023-07-13T07:46:44;101231.41;;;27.28;71.98
75886;BME280;64561;44.018;10.144;2023-07-13T07:49:11;101230.63;;;27.26;72.12
75886;BME280;64561;44.018;10.144;2023-07-13T07:51:38;101233.13;;;27.29;71.63
75886;BME280;64561;44.018;10.144;2023-07-13T07:54:06;101228.00;;;27.26;72.39
75886;BME280;64561;44.018;10.144;2023-07-13T07:56:33;101226.22;;;27.27;72.64
75886;BME280;64561;44.018;10.144;2023-07-13T07:59:03;101224.53;;;27.26;73.18
75886;BME280;64561;44.018;10.144;2023-07-13T08:01:33;101220.03;;;27.28;73.71
75886;BME280;64561;44.018;10.144;2023-07-13T08:04:04;101228.66;;;27.31;73.94
75886;BME280;64561;44.018;10.144;2023-07-13T08:06:34;101226.03;;;27.31;73.21
75886;BME280;64561;44.018;10.144;2023-07-13T08:09:04;101228.59;;;27.33;73.54
75886;BME280;64561;44.018;10.144;2023-07-13T08:11:31;101226.91;;;27.32;72.38
75886;BME280;64561;44.018;10.144;2023-07-13T08:14:01;101221.69;;;27.30;72.13
75886;BME280;64561;44.018;10.144;2023-07-13T08:16:29;101222.25;;;27.39;71.14
75886;BME280;64561;44.018;10.144;2023-07-13T08:18:57;101224.44;;;27.49;71.13
75886;BME280;64561;44.018;10.144;2023-07-13T08:21:24;101229.31;;;27.58;70.58
75886;BME280;64561;44.018;10.144;2023-07-13T08:23:51;101245.84;;;27.62;70.09
75886;BME280;64561;44.018;10.144;2023-07-13T08:26:18;101267.66;;;27.64;70.09
75886;BME280;64561;44.018;10.144;2023-07-13T08:28:46;101273.91;;;27.62;69.48
75886;BME280;64561;44.018;10.144;2023-07-13T08:31:13;101292.38;;;27.60;70.05
75886;BME280;64561;44.018;10.144;2023-07-13T08:33:41;101299.59;;;27.55;69.93
75886;BME280;64561;44.018;10.144;2023-07-13T08:36:08;101304.00;;;27.54;69.33
75886;BME280;64561;44.018;10.144;2023-07-13T08:38:35;101316.28;;;27.54;69.10
75886;BME280;64561;44.018;10.144;2023-07-13T08:41:14;101304.19;;;27.50;68.94
75886;BME280;64561;44.018;10.144;2023-07-13T08:43:46;101291.22;;;27.45;69.87
75886;BME280;64561;44.018;10.144;2023-07-13T08:49:02;101315.69;;;27.47;70.13
75886;BME280;64561;44.018;10.144;2023-07-13T08:51:35;101336.66;;;27.49;70.75
75886;BME280;64561;44.018;10.144;2023-07-13T08:54:37;101324.22;;;27.52;69.81
75886;BME280;64561;44.018;10.144;2023-07-13T08:57:13;101313.34;;;27.40;66.36
75886;BME280;64561;44.018;10.144;2023-07-13T08:59:41;101324.44;;;27.24;66.73
75886;BME280;64561;44.018;10.144;2023-07-13T09:07:22;101377.00;;;26.74;70.16
75886;BME280;64561;44.018;10.144;2023-07-13T09:15:42;101381.19;;;25.70;69.57
75886;BME280;64561;44.018;10.144;2023-07-13T09:18:23;101395.09;;;25.13;69.74
75886;BME280;64561;44.018;10.144;2023-07-13T09:20:59;101387.63;;;24.98;67.17
75886;BME280;64561;44.018;10.144;2023-07-13T09:23:30;101386.50;;;24.74;71.12
75886;BME280;64561;44.018;10.144;2023-07-13T09:26:09;101386.44;;;24.77;72.26
75886;BME280;64561;44.018;10.144;2023-07-13T09:28:43;101387.00;;;24.88;71.40
75886;BME280;64561;44.018;10.144;2023-07-13T09:31:17;101376.13;;;25.02;73.44
75886;BME280;64561;44.018;10.144;2023-07-13T09:33:46;101391.47;;;25.17;75.34
75886;BME280;64561;44.018;10.144;2023-07-13T09:36:33;101377.84;;;25.36;76.55
75886;BME280;64561;44.018;10.144;2023-07-13T09:42:12;101384.66;;;25.72;77.29
75886;BME280;64561;44.018;10.144;2023-07-13T09:44:55;101376.38;;;25.86;77.06
75886;BME280;64561;44.018;10.144;2023-07-13T09:47:31;101387.13;;;26.05;77.15
75886;BME280;64561;44.018;10.144;2023-07-13T09:50:06;101384.03;;;26.20;75.57
75886;BME280;64561;44.018;10.144;2023-07-13T09:52:48;101372.25;;;26.32;71.79
75886;BME280;64561;44.018;10.144;2023-07-13T09:55:29;101365.00;;;26.40;73.34
75886;BME280;64561;44.018;10.144;2023-07-13T09:57:57;101360.28;;;26.52;73.84
75886;BME280;64561;44.018;10.144;2023-07-13T10:00:29;101358.91;;;26.66;76.92
75886;BME280;64561;44.018;10.144;2023-07-13T10:03:09;101348.56;;;26.87;77.60
75886;BME280;64561;44.018;10.144;2023-07-13T10:05:43;101343.72;;;27.00;77.07
75886;BME280;64561;44.018;10.144;2023-07-13T10:08:29;101351.00;;;27.17;76.88
75886;BME280;64561;44.018;10.144;2023-07-13T10:11:00;101351.66;;;27.23;76.21
75886;BME280;64561;44.018;10.144;2023-07-13T10:13:32;101350.25;;;27.36;76.50
75886;BME280;64561;44.018;10.144;2023-07-13T10:16:01;101339.41;;;27.46;75.76
75886;BME280;64561;44.018;10.144;2023-07-13T10:18:32;101338.31;;;27.51;75.46
75886;BME280;64561;44.018;10.144;2023-07-13T10:21:21;101336.72;;;27.69;74.15
75886;BME280;64561;44.018;10.144;2023-07-13T10:23:55;101330.16;;;27.81;75.80
75886;BME280;64561;44.018;10.144;2023-07-13T10:26:29;101332.97;;;27.98;75.38
75886;BME280;64561;44.018;10.144;2023-07-13T10:29:09;101336.09;;;28.08;73.21
75886;BME280;64561;44.018;10.144;2023-07-13T10:31:39;101331.50;;;28.13;74.05
75886;BME280;64561;44.018;10.144;2023-07-13T10:34:11;101327.47;;;28.25;73.31
75886;BME280;64561;44.018;10.144;2023-07-13T10:36:40;101333.53;;;28.27;72.98
75886;BME280;64561;44.018;10.144;2023-07-13T10:39:15;101326.63;;;28.24;73.25
75886;BME280;64561;44.018;10.144;2023-07-13T10:41:44;101324.53;;;28.33;73.20
75886;BME280;64561;44.018;10.144;2023-07-13T10:44:24;101329.44;;;28.42;72.50
75886;BME280;64561;44.018;10.144;2023-07-13T10:46:59;101321.25;;;28.48;72.06
75886;BME280;64561;44.018;10.144;2023-07-13T10:49:29;101313.44;;;28.46;73.04
75886;BME280;64561;44.018;10.144;2023-07-13T10:51:57;101322.06;;;28.50;72.88
75886;BME280;64561;44.018;10.144;2023-07-13T10:54:34;101323.09;;;28.46;72.30
75886;BME280;64561;44.018;10.144;2023-07-13T10:59:36;101321.72;;;28.58;73.31
75886;BME280;64561;44.018;10.144;2023-07-13T11:04:59;101312.38;;;28.71;73.36
75886;BME280;64561;44.018;10.144;2023-07-13T11:07:55;101317.38;;;28.77;72.74
75886;BME280;64561;44.018;10.144;2023-07-13T11:16:32;101308.81;;;28.72;71.39
75886;BME280;64561;44.018;10.144;2023-07-13T11:21:32;101311.03;;;28.61;71.41
75886;BME280;64561;44.018;10.144;2023-07-13T11:26:42;101312.25;;;28.54;72.29
75886;BME280;64561;44.018;10.144;2023-07-13T11:31:55;101321.09;;;28.53;74.04
75886;BME280;64561;44.018;10.144;2023-07-13T11:34:33;101318.63;;;28.68;73.25
75886;BME280;64561;44.018;10.144;2023-07-13T11:37:02;101317.28;;;28.79;74.43
75886;BME280;64561;44.018;10.144;2023-07-13T11:39:35;101323.28;;;28.82;72.30
75886;BME280;64561;44.018;10.144;2023-07-13T11:42:07;101317.47;;;28.94;73.03
75886;BME280;64561;44.018;10.144;2023-07-13T11:44:43;101316.69;;;28.92;73.03
75886;BME280;64561;44.018;10.144;2023-07-13T11:47:30;101314.75;;;28.96;73.77
75886;BME280;64561;44.018;10.144;2023-07-13T11:49:58;101315.31;;;29.04;73.11
75886;BME280;64561;44.018;10.144;2023-07-13T11:52:34;101322.53;;;28.99;73.08
75886;BME280;64561;44.018;10.144;2023-07-13T11:55:13;101321.09;;;28.92;73.76
75886;BME280;64561;44.018;10.144;2023-07-13T11:57:47;101316.88;;;28.88;73.34
75886;BME280;64561;44.018;10.144;2023-07-13T12:00:22;101308.53;;;28.78;73.57
75886;BME280;64561;44.018;10.144;2023-07-13T12:02:52;101313.47;;;28.86;75.40
75886;BME280;64561;44.018;10.144;2023-07-13T12:05:21;101314.97;;;28.91;74.52
75886;BME280;64561;44.018;10.144;2023-07-13T12:07:49;101307.97;;;28.90;74.74
75886;BME280;64561;44.018;10.144;2023-07-13T12:10:21;101304.06;;;28.99;75.05
75886;BME280;64561;44.018;10.144;2023-07-13T12:12:52;101315.31;;;29.04;74.04
75886;BME280;64561;44.018;10.144;2023-07-13T12:15:21;101306.75;;;29.18;73.70
75886;BME280;64561;44.018;10.144;2023-07-13T12:17:49;101310.03;;;29.23;74.92
75886;BME280;64561;44.018;10.144;2023-07-13T12:20:26;101314.66;;;29.37;73.19
75886;BME280;64561;44.018;10.144;2023-07-13T12:22:54;101303.28;;;29.36;73.43
75886;BME280;64561;44.018;10.144;2023-07-13T12:25:28;101301.50;;;29.37;73.52
75886;BME280;64561;44.018;10.144;2023-07-13T12:27:57;101297.41;;;29.49;73.36
75886;BME280;64561;44.018;10.144;2023-07-13T12:30:28;101295.53;;;29.51;73.62
75886;BME280;64561;44.018;10.144;2023-07-13T12:33:00;101298.88;;;29.54;73.19
75886;BME280;64561;44.018;10.144;2023-07-13T12:35:30;101300.59;;;29.55;73.08
75886;BME280;64561;44.018;10.144;2023-07-13T12:37:57;101308.28;;;29.60;72.37
75886;BME280;64561;44.018;10.144;2023-07-13T12:40:34;101301.31;;;29.59;72.03
75886;BME280;64561;44.018;10.144;2023-07-13T12:43:03;101302.16;;;29.59;71.93
75886;BME280;64561;44.018;10.144;2023-07-13T12:45:33;101302.31;;;29.56;72.02
75886;BME280;64561;44.018;10.144;2023-07-13T12:48:10;101303.38;;;29.52;71.95
75886;BME280;64561;44.018;10.144;2023-07-13T12:50:42;101309.97;;;29.62;73.67
75886;BME280;64561;44.018;10.144;2023-07-13T12:53:14;101302.88;;;29.63;74.08
75886;BME280;64561;44.018;10.144;2023-07-13T12:58:18;101301.75;;;29.69;72.58
75886;BME280;64561;44.018;10.144;2023-07-13T13:00:49;101303.38;;;29.71;72.38
75886;BME280;64561;44.018;10.144;2023-07-13T13:03:28;101291.88;;;29.72;72.35
75886;BME280;64561;44.018;10.144;2023-07-13T13:06:34;101297.25;;;29.71;71.45
75886;BME280;64561;44.018;10.144;2023-07-13T13:08:56;101305.88;;;29.74;73.58
75886;BME280;64561;44.018;10.144;2023-07-13T13:11:30;101306.72;;;29.75;73.83
75886;BME280;64561;44.018;10.144;2023-07-13T13:13:58;101312.78;;;29.77;71.44
75886;BME280;64561;44.018;10.144;2023-07-13T13:18:55;101308.50;;;29.74;70.98
75886;BME280;64561;44.018;10.144;2023-07-13T13:21:24;101311.69;;;29.81;72.14
75886;BME280;64561;44.018;10.144;2023-07-13T13:23:52;101309.84;;;29.83;71.85
75886;BME280;64561;44.018;10.144;2023-07-13T13:26:21;101307.22;;;29.83;72.17
75886;BME280;64561;44.018;10.144;2023-07-13T13:28:49;101311.84;;;29.78;72.74
75886;BME280;64561;44.018;10.144;2023-07-13T13:31:16;101314.47;;;29.78;72.94
75886;BME280;64561;44.018;10.144;2023-07-13T13:33:45;101311.84;;;29.78;71.44
75886;BME280;64561;44.018;10.144;2023-07-13T13:36:22;101314.94;;;29.69;71.50